sensor_id;sensor_type;location;lat;lon;timestamp;temperature;humidity
61841;DHT22;47773;53.174;6.614;2022-08-19T00:00:18;16.80;99.90
61841;DHT22;47773;53.174;6.614;2022-08-19T00:02:44;16.80;99.90
61841;DHT22;47773;53.174;6.614;2022-08-19T00:05:12;16.80;99.90
61841;DHT22;47773;53.174;6.614;2022-08-19T00:07:38;16.80;99.90
61841;DHT22;47773;53.174;6.614;2022-08-19T00:10:05;16.80;99.90
61841;DHT22;47773;53.174;6.614;2022-08-19T00:12:32;16.80;99.90
61841;DHT22;47773;53.174;6.614;2022-08-19T00:14:58;16.70;99.90
61841;DHT22;47773;53.174;6.614;2022-08-19T00:17:23;16.70;99.90
61841;DHT22;47773;53.174;6.614;2022-08-19T00:19:49;16.70;99.90
61841;DHT22;47773;53.174;6.614;2022-08-19T00:22:14;16.70;99.90
61841;DHT22;47773;53.174;6.614;2022-08-19T00:24:41;16.70;99.90
61841;DHT22;47773;53.174;6.614;2022-08-19T00:27:09;16.70;99.90
61841;DHT22;47773;53.174;6.614;2022-08-19T00:29:34;16.70;99.90
61841;DHT22;47773;53.174;6.614;2022-08-19T00:32:00;16.60;99.90
61841;DHT22;47773;53.174;6.614;2022-08-19T00:34:26;16.60;99.90
61841;DHT22;47773;53.174;6.614;2022-08-19T00:36:55;16.60;99.90
61841;DHT22;47773;53.174;6.614;2022-08-19T00:39:21;16.60;99.90
61841;DHT22;47773;53.174;6.614;2022-08-19T00:41:48;16.50;99.90
61841;DHT22;47773;53.174;6.614;2022-08-19T00:44:18;16.50;99.90
61841;DHT22;47773;53.174;6.614;2022-08-19T00:46:47;16.50;99.90
61841;DHT22;47773;53.174;6.614;2022-08-19T00:49:17;16.50;99.90
61841;DHT22;47773;53.174;6.614;2022-08-19T00:51:48;16.50;99.90
61841;DHT22;47773;53.174;6.614;2022-08-19T00:54:15;16.50;99.90
61841;DHT22;47773;53.174;6.614;2022-08-19T00:56:42;16.40;99.90
61841;DHT22;47773;53.174;6.614;2022-08-19T00:59:09;16.40;99.90
61841;DHT22;47773;53.174;6.614;2022-08-19T01:04:02;16.40;99.90
61841;DHT22;47773;53.174;6.614;2022-08-19T01:06:28;16.30;99.90
61841;DHT22;47773;53.174;6.614;2022-08-19T01:08:56;16.30;99.90
61841;DHT22;47773;53.174;6.614;2022-08-19T01:11:22;16.30;99.90
61841;DHT22;47773;53.174;6.614;2022-08-19T01:13:48;16.30;99.90
61841;DHT22;47773;53.174;6.614;2022-08-19T01:18:42;16.20;99.90
61841;DHT22;47773;53.174;6.614;2022-08-19T01:21:24;16.20;99.90
61841;DHT22;47773;53.174;6.614;2022-08-19T01:23:52;16.20;99.90
61841;DHT22;47773;53.174;6.614;2022-08-19T01:26:20;16.20;99.90
61841;DHT22;47773;53.174;6.614;2022-08-19T01:28:50;16.10;99.90
61841;DHT22;47773;53.174;6.614;2022-08-19T01:31:19;16.20;99.90
61841;DHT22;47773;53.174;6.614;2022-08-19T01:33:47;16.10;99.90
61841;DHT22;47773;53.174;6.614;2022-08-19T01:36:16;16.10;99.90
61841;DHT22;47773;53.174;6.614;2022-08-19T01:38:47;16.10;99.90
61841;DHT22;47773;53.174;6.614;2022-08-19T01:41:13;16.00;99.90
61841;DHT22;47773;53.174;6.614;2022-08-19T01:43:40;16.00;99.90
61841;DHT22;47773;53.174;6.614;2022-08-19T01:46:06;16.00;99.90
61841;DHT22;47773;53.174;6.614;2022-08-19T01:48:39;16.00;99.90
61841;DHT22;47773;53.174;6.614;2022-08-19T01:51:06;16.00;99.90
61841;DHT22;47773;53.174;6.614;2022-08-19T01:53:32;16.00;99.90
61841;DHT22;47773;53.174;6.614;2022-08-19T01:55:58;16.00;99.90
61841;DHT22;47773;53.174;6.614;2022-08-19T01:58:36;16.00;99.90
61841;DHT22;47773;53.174;6.614;2022-08-19T02:01:05;16.00;99.90
61841;DHT22;47773;53.174;6.614;2022-08-19T02:03:31;16.00;99.90
61841;DHT22;47773;53.174;6.614;2022-08-19T02:05:59;16.00;99.90
61841;DHT22;47773;53.174;6.614;2022-08-19T02:08:34;16.00;99.90
61841;DHT22;47773;53.174;6.614;2022-08-19T02:11:00;16.00;99.90
61841;DHT22;47773;53.174;6.614;2022-08-19T02:13:27;16.00;99.90
61841;DHT22;47773;53.174;6.614;2022-08-19T02:15:53;16.00;99.90
61841;DHT22;47773;53.174;6.614;2022-08-19T02:20:44;16.00;99.90
61841;DHT22;47773;53.174;6.614;2022-08-19T02:23:14;15.90;99.90
61841;DHT22;47773;53.174;6.614;2022-08-19T02:25:40;15.90;99.90
61841;DHT22;47773;53.174;6.614;2022-08-19T02:28:06;15.90;99.90
61841;DHT22;47773;53.174;6.614;2022-08-19T02:32:59;16.00;99.90
61841;DHT22;47773;53.174;6.614;2022-08-19T02:35:31;15.90;99.90
61841;DHT22;47773;53.174;6.614;2022-08-19T02:37:57;15.90;99.90
61841;DHT22;47773;53.174;6.614;2022-08-19T02:43:15;15.90;99.90
61841;DHT22;47773;53.174;6.614;2022-08-19T02:45:41;15.90;99.90
61841;DHT22;47773;53.174;6.614;2022-08-19T02:48:07;15.90;99.90
61841;DHT22;47773;53.174;6.614;2022-08-19T02:50:39;15.90;99.90
61841;DHT22;47773;53.174;6.614;2022-08-19T02:53:05;15.80;99.90
61841;DHT22;47773;53.174;6.614;2022-08-19T02:55:32;15.80;99.90
61841;DHT22;47773;53.174;6.614;2022-08-19T02:57:58;15.80;99.90
61841;DHT22;47773;53.174;6.614;2022-08-19T03:00:25;15.90;99.90
61841;DHT22;47773;53.174;6.614;2022-08-19T03:02:52;15.80;99.90
61841;DHT22;47773;53.174;6.614;2022-08-19T03:05:17;15.90;99.90
61841;DHT22;47773;53.174;6.614;2022-08-19T03:07:43;15.90;99.90
61841;DHT22;47773;53.174;6.614;2022-08-19T03:10:09;15.90;99.90
61841;DHT22;47773;53.174;6.614;2022-08-19T03:12:36;15.90;99.90
61841;DHT22;47773;53.174;6.614;2022-08-19T03:15:04;15.90;99.90
61841;DHT22;47773;53.174;6.614;2022-08-19T03:17:31;15.90;99.90
61841;DHT22;47773;53.174;6.614;2022-08-19T03:19:56;15.90;99.90
61841;DHT22;47773;53.174;6.614;2022-08-19T03:22:22;15.90;99.90
61841;DHT22;47773;53.174;6.614;2022-08-19T03:24:48;15.80;99.90
61841;DHT22;47773;53.174;6.614;2022-08-19T03:27:13;15.80;99.90
61841;DHT22;47773;53.174;6.614;2022-08-19T03:29:40;15.90;99.90
61841;DHT22;47773;53.174;6.614;2022-08-19T03:32:06;15.80;99.90
61841;DHT22;47773;53.174;6.614;2022-08-19T03:34:33;15.80;99.90
61841;DHT22;47773;53.174;6.614;2022-08-19T03:37:06;15.80;99.90
61841;DHT22;47773;53.174;6.614;2022-08-19T03:39:32;15.80;99.90
61841;DHT22;47773;53.174;6.614;2022-08-19T03:41:58;15.80;99.90
61841;DHT22;47773;53.174;6.614;2022-08-19T03:44:28;15.80;99.90
61841;DHT22;47773;53.174;6.614;2022-08-19T03:46:57;15.80;99.90
61841;DHT22;47773;53.174;6.614;2022-08-19T03:49:25;15.80;99.90
61841;DHT22;47773;53.174;6.614;2022-08-19T03:51:53;15.80;99.90
61841;DHT22;47773;53.174;6.614;2022-08-19T03:54:21;15.70;99.90
61841;DHT22;47773;53.174;6.614;2022-08-19T03:56:49;15.70;99.90
61841;DHT22;47773;53.174;6.614;2022-08-19T03:59:22;15.70;99.90
61841;DHT22;47773;53.174;6.614;2022-08-19T04:01:53;15.70;99.90
61841;DHT22;47773;53.174;6.614;2022-08-19T04:04:19;15.70;99.90
61841;DHT22;47773;53.174;6.614;2022-08-19T04:06:44;15.70;99.90
61841;DHT22;47773;53.174;6.614;2022-08-19T04:09:12;15.70;99.90
61841;DHT22;47773;53.174;6.614;2022-08-19T04:11:44;15.70;99.90
61841;DHT22;47773;53.174;6.614;2022-08-19T04:14:13;15.70;99.90
61841;DHT22;47773;53.174;6.614;2022-08-19T04:16:39;15.70;99.90
61841;DHT22;47773;53.174;6.614;2022-08-19T04:19:05;15.70;99.90
61841;DHT22;47773;53.174;6.614;2022-08-19T04:21:31;15.70;99.90
61841;DHT22;47773;53.174;6.614;2022-08-19T04:23:57;15.70;99.90
61841;DHT22;47773;53.174;6.614;2022-08-19T04:26:30;15.70;99.90
61841;DHT22;47773;53.174;6.614;2022-08-19T04:29:01;15.70;99.90
61841;DHT22;47773;53.174;6.614;2022-08-19T04:31:29;15.70;99.90
61841;DHT22;47773;53.174;6.614;2022-08-19T04:33:57;15.70;99.90
61841;DHT22;47773;53.174;6.614;2022-08-19T04:36:29;15.70;99.90
61841;DHT22;47773;53.174;6.614;2022-08-19T04:38:58;15.70;99.90
61841;DHT22;47773;53.174;6.614;2022-08-19T04:41:24;15.70;99.90
61841;DHT22;47773;53.174;6.614;2022-08-19T04:44:09;15.70;99.90
61841;DHT22;47773;53.174;6.614;2022-08-19T04:46:35;15.70;99.90
61841;DHT22;47773;53.174;6.614;2022-08-19T04:49:02;15.70;99.90
61841;DHT22;47773;53.174;6.614;2022-08-19T04:51:30;15.70;99.90
61841;DHT22;47773;53.174;6.614;2022-08-19T04:53:56;15.70;99.90
61841;DHT22;47773;53.174;6.614;2022-08-19T04:56:22;15.70;99.90
61841;DHT22;47773;53.174;6.614;2022-08-19T04:58:51;15.70;99.90
61841;DHT22;47773;53.174;6.614;2022-08-19T05:01:20;15.70;99.90
61841;DHT22;47773;53.174;6.614;2022-08-19T05:03:46;15.70;99.90
61841;DHT22;47773;53.174;6.614;2022-08-19T05:06:15;15.70;99.90
61841;DHT22;47773;53.174;6.614;2022-08-19T05:08:42;15.80;99.90
61841;DHT22;47773;53.174;6.614;2022-08-19T05:11:29;15.80;99.90
61841;DHT22;47773;53.174;6.614;2022-08-19T05:13:57;15.80;99.90
61841;DHT22;47773;53.174;6.614;2022-08-19T05:16:24;15.80;99.90
61841;DHT22;47773;53.174;6.614;2022-08-19T05:18:51;15.90;99.90
61841;DHT22;47773;53.174;6.614;2022-08-19T05:21:36;15.90;99.90
61841;DHT22;47773;53.174;6.614;2022-08-19T05:24:22;15.90;99.90
61841;DHT22;47773;53.174;6.614;2022-08-19T05:26:50;15.90;99.90
61841;DHT22;47773;53.174;6.614;2022-08-19T05:29:19;16.00;99.90
61841;DHT22;47773;53.174;6.614;2022-08-19T05:34:12;16.10;99.90
61841;DHT22;47773;53.174;6.614;2022-08-19T05:36:41;16.10;99.90
61841;DHT22;47773;53.174;6.614;2022-08-19T05:39:09;16.40;99.90
61841;DHT22;47773;53.174;6.614;2022-08-19T05:41:35;16.40;99.90
61841;DHT22;47773;53.174;6.614;2022-08-19T05:44:03;16.30;99.90
61841;DHT22;47773;53.174;6.614;2022-08-19T05:46:32;16.30;99.90
61841;DHT22;47773;53.174;6.614;2022-08-19T05:48:57;16.40;99.90
61841;DHT22;47773;53.174;6.614;2022-08-19T05:51:24;16.40;99.90
61841;DHT22;47773;53.174;6.614;2022-08-19T05:53:50;16.50;99.90
61841;DHT22;47773;53.174;6.614;2022-08-19T05:56:17;16.50;99.90
61841;DHT22;47773;53.174;6.614;2022-08-19T05:58:44;16.60;99.90
61841;DHT22;47773;53.174;6.614;2022-08-19T06:01:12;16.60;99.90
61841;DHT22;47773;53.174;6.614;2022-08-19T06:03:38;16.70;99.90
61841;DHT22;47773;53.174;6.614;2022-08-19T06:06:07;16.80;99.90
61841;DHT22;47773;53.174;6.614;2022-08-19T06:08:33;16.90;99.90
61841;DHT22;47773;53.174;6.614;2022-08-19T06:11:17;17.00;99.90
61841;DHT22;47773;53.174;6.614;2022-08-19T06:13:44;17.00;99.90
61841;DHT22;47773;53.174;6.614;2022-08-19T06:16:14;17.10;99.90
61841;DHT22;47773;53.174;6.614;2022-08-19T06:18:46;17.20;99.90
61841;DHT22;47773;53.174;6.614;2022-08-19T06:21:12;17.30;99.90
61841;DHT22;47773;53.174;6.614;2022-08-19T06:23:38;17.40;99.90
61841;DHT22;47773;53.174;6.614;2022-08-19T06:26:04;17.50;99.90
61841;DHT22;47773;53.174;6.614;2022-08-19T06:28:30;17.60;99.90
61841;DHT22;47773;53.174;6.614;2022-08-19T06:30:55;17.70;99.90
61841;DHT22;47773;53.174;6.614;2022-08-19T06:33:21;17.80;99.90
61841;DHT22;47773;53.174;6.614;2022-08-19T06:35:47;17.90;99.90
61841;DHT22;47773;53.174;6.614;2022-08-19T06:38:12;18.00;99.90
61841;DHT22;47773;53.174;6.614;2022-08-19T06:40:38;18.20;99.90
61841;DHT22;47773;53.174;6.614;2022-08-19T06:43:03;18.40;99.90
61841;DHT22;47773;53.174;6.614;2022-08-19T06:45:29;18.70;99.90
61841;DHT22;47773;53.174;6.614;2022-08-19T06:47:56;18.90;99.90
61841;DHT22;47773;53.174;6.614;2022-08-19T06:50:23;19.10;99.90
61841;DHT22;47773;53.174;6.614;2022-08-19T06:52:48;19.30;99.90
61841;DHT22;47773;53.174;6.614;2022-08-19T06:55:14;19.50;99.90
61841;DHT22;47773;53.174;6.614;2022-08-19T06:57:41;19.80;99.90
61841;DHT22;47773;53.174;6.614;2022-08-19T07:00:08;20.10;99.90
61841;DHT22;47773;53.174;6.614;2022-08-19T07:02:42;20.40;99.90
61841;DHT22;47773;53.174;6.614;2022-08-19T07:05:08;20.70;99.90
61841;DHT22;47773;53.174;6.614;2022-08-19T07:07:34;20.90;99.90
61841;DHT22;47773;53.174;6.614;2022-08-19T07:10:00;21.20;99.90
61841;DHT22;47773;53.174;6.614;2022-08-19T07:12:30;21.50;99.90
61841;DHT22;47773;53.174;6.614;2022-08-19T07:14:59;21.70;99.90
61841;DHT22;47773;53.174;6.614;2022-08-19T07:17:30;22.00;99.90
61841;DHT22;47773;53.174;6.614;2022-08-19T07:19:56;21.90;99.90
61841;DHT22;47773;53.174;6.614;2022-08-19T07:22:22;22.00;99.90
61841;DHT22;47773;53.174;6.614;2022-08-19T07:24:48;22.00;99.90
61841;DHT22;47773;53.174;6.614;2022-08-19T07:27:14;22.10;99.90
61841;DHT22;47773;53.174;6.614;2022-08-19T07:29:40;22.30;99.90
61841;DHT22;47773;53.174;6.614;2022-08-19T07:32:06;22.50;99.90
61841;DHT22;47773;53.174;6.614;2022-08-19T07:34:33;22.60;99.90
61841;DHT22;47773;53.174;6.614;2022-08-19T07:37:04;22.70;99.90
61841;DHT22;47773;53.174;6.614;2022-08-19T07:39:32;22.80;99.90
61841;DHT22;47773;53.174;6.614;2022-08-19T07:42:00;22.70;99.90
61841;DHT22;47773;53.174;6.614;2022-08-19T07:44:26;22.50;99.90
61841;DHT22;47773;53.174;6.614;2022-08-19T07:46:55;22.30;99.90
61841;DHT22;47773;53.174;6.614;2022-08-19T07:49:22;22.20;99.90
61841;DHT22;47773;53.174;6.614;2022-08-19T07:52:14;22.30;99.90
61841;DHT22;47773;53.174;6.614;2022-08-19T07:54:40;22.30;99.90
61841;DHT22;47773;53.174;6.614;2022-08-19T07:57:07;22.30;99.90
61841;DHT22;47773;53.174;6.614;2022-08-19T07:59:33;22.30;99.90
61841;DHT22;47773;53.174;6.614;2022-08-19T08:01:59;22.40;99.90
61841;DHT22;47773;53.174;6.614;2022-08-19T08:04:26;22.40;99.90
61841;DHT22;47773;53.174;6.614;2022-08-19T08:07:10;22.40;99.90
61841;DHT22;47773;53.174;6.614;2022-08-19T08:09:55;22.40;99.90
61841;DHT22;47773;53.174;6.614;2022-08-19T08:12:23;22.50;99.90
61841;DHT22;47773;53.174;6.614;2022-08-19T08:14:55;22.60;99.90
61841;DHT22;47773;53.174;6.614;2022-08-19T08:17:24;22.80;99.90
61841;DHT22;47773;53.174;6.614;2022-08-19T08:19:50;23.00;99.90
61841;DHT22;47773;53.174;6.614;2022-08-19T08:22:18;23.10;99.90
61841;DHT22;47773;53.174;6.614;2022-08-19T08:25:08;23.30;99.90
61841;DHT22;47773;53.174;6.614;2022-08-19T08:27:39;23.60;99.90
61841;DHT22;47773;53.174;6.614;2022-08-19T08:30:18;23.80;99.90
61841;DHT22;47773;53.174;6.614;2022-08-19T08:32:44;23.90;99.90
61841;DHT22;47773;53.174;6.614;2022-08-19T08:35:13;23.80;99.90
61841;DHT22;47773;53.174;6.614;2022-08-19T08:37:40;23.90;99.90
61841;DHT22;47773;53.174;6.614;2022-08-19T08:40:29;24.10;99.90
61841;DHT22;47773;53.174;6.614;2022-08-19T08:45:30;24.60;99.90
61841;DHT22;47773;53.174;6.614;2022-08-19T08:47:58;24.90;99.90
61841;DHT22;47773;53.174;6.614;2022-08-19T08:50:39;25.20;99.90
61841;DHT22;47773;53.174;6.614;2022-08-19T08:53:07;25.50;99.90
61841;DHT22;47773;53.174;6.614;2022-08-19T08:55:34;25.60;99.90
61841;DHT22;47773;53.174;6.614;2022-08-19T08:58:10;25.80;99.90
61841;DHT22;47773;53.174;6.614;2022-08-19T09:00:42;25.90;99.90
61841;DHT22;47773;53.174;6.614;2022-08-19T09:03:28;26.10;99.90
61841;DHT22;47773;53.174;6.614;2022-08-19T09:06:04;26.30;99.90
61841;DHT22;47773;53.174;6.614;2022-08-19T09:08:49;26.50;99.90
61841;DHT22;47773;53.174;6.614;2022-08-19T09:11:47;26.70;99.90
61841;DHT22;47773;53.174;6.614;2022-08-19T09:16:41;26.90;99.90
61841;DHT22;47773;53.174;6.614;2022-08-19T09:19:09;27.00;99.90
61841;DHT22;47773;53.174;6.614;2022-08-19T09:21:36;27.20;99.90
61841;DHT22;47773;53.174;6.614;2022-08-19T09:24:02;27.20;99.90
61841;DHT22;47773;53.174;6.614;2022-08-19T09:26:29;27.40;99.90
61841;DHT22;47773;53.174;6.614;2022-08-19T09:28:55;27.50;97.90
61841;DHT22;47773;53.174;6.614;2022-08-19T09:31:26;27.60;95.90
61841;DHT22;47773;53.174;6.614;2022-08-19T09:33:52;27.70;94.90
61841;DHT22;47773;53.174;6.614;2022-08-19T09:36:23;27.80;94.60
61841;DHT22;47773;53.174;6.614;2022-08-19T09:38:50;27.90;94.50
61841;DHT22;47773;53.174;6.614;2022-08-19T09:41:20;27.90;94.30
61841;DHT22;47773;53.174;6.614;2022-08-19T09:43:49;28.00;94.40
61841;DHT22;47773;53.174;6.614;2022-08-19T09:46:18;28.10;92.90
61841;DHT22;47773;53.174;6.614;2022-08-19T09:48:49;28.20;93.10
61841;DHT22;47773;53.174;6.614;2022-08-19T09:51:21;28.20;92.40
61841;DHT22;47773;53.174;6.614;2022-08-19T09:53:49;28.10;87.60
61841;DHT22;47773;53.174;6.614;2022-08-19T09:56:22;28.20;93.00
61841;DHT22;47773;53.174;6.614;2022-08-19T09:58:48;28.40;92.90
61841;DHT22;47773;53.174;6.614;2022-08-19T10:01:20;28.40;91.70
61841;DHT22;47773;53.174;6.614;2022-08-19T10:03:47;28.50;90.70
61841;DHT22;47773;53.174;6.614;2022-08-19T10:06:13;28.60;90.70
61841;DHT22;47773;53.174;6.614;2022-08-19T10:08:38;28.50;91.80
61841;DHT22;47773;53.174;6.614;2022-08-19T10:11:05;28.60;91.00
61841;DHT22;47773;53.174;6.614;2022-08-19T10:13:32;28.50;90.50
61841;DHT22;47773;53.174;6.614;2022-08-19T10:16:09;28.60;89.70
61841;DHT22;47773;53.174;6.614;2022-08-19T10:18:37;28.70;81.90
61841;DHT22;47773;53.174;6.614;2022-08-19T10:21:29;28.70;83.80
61841;DHT22;47773;53.174;6.614;2022-08-19T10:23:57;28.70;82.70
61841;DHT22;47773;53.174;6.614;2022-08-19T10:26:29;28.60;84.00
61841;DHT22;47773;53.174;6.614;2022-08-19T10:28:56;28.80;82.90
61841;DHT22;47773;53.174;6.614;2022-08-19T10:31:27;28.70;81.00
61841;DHT22;47773;53.174;6.614;2022-08-19T10:33:54;28.60;79.30
61841;DHT22;47773;53.174;6.614;2022-08-19T10:36:25;28.70;80.80
61841;DHT22;47773;53.174;6.614;2022-08-19T10:38:53;28.60;79.50
61841;DHT22;47773;53.174;6.614;2022-08-19T10:41:22;28.70;78.50
61841;DHT22;47773;53.174;6.614;2022-08-19T10:43:51;28.80;79.20
61841;DHT22;47773;53.174;6.614;2022-08-19T10:46:21;28.80;77.20
61841;DHT22;47773;53.174;6.614;2022-08-19T10:48:47;28.70;78.50
61841;DHT22;47773;53.174;6.614;2022-08-19T10:51:13;28.20;80.30
61841;DHT22;47773;53.174;6.614;2022-08-19T10:53:59;28.20;83.10
61841;DHT22;47773;53.174;6.614;2022-08-19T10:56:25;27.80;85.30
61841;DHT22;47773;53.174;6.614;2022-08-19T10:59:10;27.80;85.70
61841;DHT22;47773;53.174;6.614;2022-08-19T11:01:40;27.90;83.70
61841;DHT22;47773;53.174;6.614;2022-08-19T11:04:06;28.00;81.10
61841;DHT22;47773;53.174;6.614;2022-08-19T11:06:36;28.20;81.70
61841;DHT22;47773;53.174;6.614;2022-08-19T11:09:02;28.40;80.40
61841;DHT22;47773;53.174;6.614;2022-08-19T11:11:27;28.60;79.50
61841;DHT22;47773;53.174;6.614;2022-08-19T11:13:53;28.70;77.70
61841;DHT22;47773;53.174;6.614;2022-08-19T11:16:22;28.70;76.20
61841;DHT22;47773;53.174;6.614;2022-08-19T11:18:53;28.60;77.40
61841;DHT22;47773;53.174;6.614;2022-08-19T11:21:30;28.70;76.10
61841;DHT22;47773;53.174;6.614;2022-08-19T11:24:01;28.80;76.40
61841;DHT22;47773;53.174;6.614;2022-08-19T11:26:29;28.80;76.40
61841;DHT22;47773;53.174;6.614;2022-08-19T11:28:56;28.90;75.20
61841;DHT22;47773;53.174;6.614;2022-08-19T11:31:27;29.00;74.70
61841;DHT22;47773;53.174;6.614;2022-08-19T11:33:53;28.80;74.30
61841;DHT22;47773;53.174;6.614;2022-08-19T11:36:21;28.90;75.80
61841;DHT22;47773;53.174;6.614;2022-08-19T11:38:50;29.10;75.90
61841;DHT22;47773;53.174;6.614;2022-08-19T11:41:18;28.90;75.50
61841;DHT22;47773;53.174;6.614;2022-08-19T11:43:44;28.90;74.90
61841;DHT22;47773;53.174;6.614;2022-08-19T11:46:13;29.10;75.00
61841;DHT22;47773;53.174;6.614;2022-08-19T11:48:40;29.20;73.20
61841;DHT22;47773;53.174;6.614;2022-08-19T11:51:08;29.50;72.20
61841;DHT22;47773;53.174;6.614;2022-08-19T11:53:35;29.60;71.80
61841;DHT22;47773;53.174;6.614;2022-08-19T11:56:03;29.60;71.70
61841;DHT22;47773;53.174;6.614;2022-08-19T11:58:29;29.20;72.90
61841;DHT22;47773;53.174;6.614;2022-08-19T12:00:55;28.90;75.70
61841;DHT22;47773;53.174;6.614;2022-08-19T12:03:27;28.60;78.50
61841;DHT22;47773;53.174;6.614;2022-08-19T12:05:53;28.50;80.50
61841;DHT22;47773;53.174;6.614;2022-08-19T12:08:19;28.30;82.50
61841;DHT22;47773;53.174;6.614;2022-08-19T12:10:45;28.10;83.40
61841;DHT22;47773;53.174;6.614;2022-08-19T12:13:12;28.00;84.00
61841;DHT22;47773;53.174;6.614;2022-08-19T12:15:41;27.80;84.50
61841;DHT22;47773;53.174;6.614;2022-08-19T12:18:07;27.60;83.60
61841;DHT22;47773;53.174;6.614;2022-08-19T12:20:35;27.40;83.90
61841;DHT22;47773;53.174;6.614;2022-08-19T12:23:01;27.30;86.40
61841;DHT22;47773;53.174;6.614;2022-08-19T12:25:27;27.10;87.70
61841;DHT22;47773;53.174;6.614;2022-08-19T12:27:52;27.00;90.00
61841;DHT22;47773;53.174;6.614;2022-08-19T12:30:18;26.90;90.10
61841;DHT22;47773;53.174;6.614;2022-08-19T12:32:44;26.80;90.10
61841;DHT22;47773;53.174;6.614;2022-08-19T12:35:09;26.80;90.90
61841;DHT22;47773;53.174;6.614;2022-08-19T12:37:36;26.80;91.20
61841;DHT22;47773;53.174;6.614;2022-08-19T12:40:01;26.90;91.10
61841;DHT22;47773;53.174;6.614;2022-08-19T12:42:28;26.90;90.80
61841;DHT22;47773;53.174;6.614;2022-08-19T12:44:55;26.80;90.40
61841;DHT22;47773;53.174;6.614;2022-08-19T12:47:21;26.70;90.20
61841;DHT22;47773;53.174;6.614;2022-08-19T12:49:48;26.50;90.50
61841;DHT22;47773;53.174;6.614;2022-08-19T12:52:14;26.50;91.70
61841;DHT22;47773;53.174;6.614;2022-08-19T12:54:41;26.60;92.20
61841;DHT22;47773;53.174;6.614;2022-08-19T12:57:08;26.60;92.40
61841;DHT22;47773;53.174;6.614;2022-08-19T12:59:35;26.60;91.70
61841;DHT22;47773;53.174;6.614;2022-08-19T13:02:06;26.60;92.40
61841;DHT22;47773;53.174;6.614;2022-08-19T13:04:33;26.70;93.60
61841;DHT22;47773;53.174;6.614;2022-08-19T13:07:07;26.70;93.50
61841;DHT22;47773;53.174;6.614;2022-08-19T13:09:34;26.70;93.00
61841;DHT22;47773;53.174;6.614;2022-08-19T13:11:59;26.70;92.10
61841;DHT22;47773;53.174;6.614;2022-08-19T13:14:28;26.60;92.70
61841;DHT22;47773;53.174;6.614;2022-08-19T13:16:56;26.50;92.80
61841;DHT22;47773;53.174;6.614;2022-08-19T13:19:23;26.40;93.00
61841;DHT22;47773;53.174;6.614;2022-08-19T13:21:50;26.40;94.60
61841;DHT22;47773;53.174;6.614;2022-08-19T13:24:16;26.40;95.40
61841;DHT22;47773;53.174;6.614;2022-08-19T13:26:42;26.40;95.60
61841;DHT22;47773;53.174;6.614;2022-08-19T13:29:08;26.40;96.50
61841;DHT22;47773;53.174;6.614;2022-08-19T13:31:53;26.40;97.00
61841;DHT22;47773;53.174;6.614;2022-08-19T13:34:38;26.40;98.00
61841;DHT22;47773;53.174;6.614;2022-08-19T13:37:05;26.30;98.10
61841;DHT22;47773;53.174;6.614;2022-08-19T13:39:32;26.30;99.50
61841;DHT22;47773;53.174;6.614;2022-08-19T13:41:59;26.20;99.90
61841;DHT22;47773;53.174;6.614;2022-08-19T13:44:27;26.30;99.90
61841;DHT22;47773;53.174;6.614;2022-08-19T13:46:55;26.30;99.90
61841;DHT22;47773;53.174;6.614;2022-08-19T13:49:24;26.30;99.90
61841;DHT22;47773;53.174;6.614;2022-08-19T13:51:50;26.30;99.90
61841;DHT22;47773;53.174;6.614;2022-08-19T13:54:16;26.10;99.90
61841;DHT22;47773;53.174;6.614;2022-08-19T13:56:43;25.90;99.90
61841;DHT22;47773;53.174;6.614;2022-08-19T13:59:09;25.80;99.90
61841;DHT22;47773;53.174;6.614;2022-08-19T14:01:35;25.60;99.90
61841;DHT22;47773;53.174;6.614;2022-08-19T14:04:02;25.50;99.90
61841;DHT22;47773;53.174;6.614;2022-08-19T14:06:27;25.40;99.90
61841;DHT22;47773;53.174;6.614;2022-08-19T14:08:53;25.30;99.90
61841;DHT22;47773;53.174;6.614;2022-08-19T14:11:19;25.30;99.90
61841;DHT22;47773;53.174;6.614;2022-08-19T14:13:44;25.20;99.90
61841;DHT22;47773;53.174;6.614;2022-08-19T14:16:12;25.10;99.90
61841;DHT22;47773;53.174;6.614;2022-08-19T14:18:38;25.10;99.90
61841;DHT22;47773;53.174;6.614;2022-08-19T14:21:05;25.00;99.90
61841;DHT22;47773;53.174;6.614;2022-08-19T14:23:32;24.90;99.90
61841;DHT22;47773;53.174;6.614;2022-08-19T14:26:10;24.90;99.90
61841;DHT22;47773;53.174;6.614;2022-08-19T14:28:37;24.90;99.90
61841;DHT22;47773;53.174;6.614;2022-08-19T14:31:04;24.80;99.90
61841;DHT22;47773;53.174;6.614;2022-08-19T14:33:30;24.80;99.90
61841;DHT22;47773;53.174;6.614;2022-08-19T14:35:57;24.80;99.90
61841;DHT22;47773;53.174;6.614;2022-08-19T14:38:22;24.80;99.90
61841;DHT22;47773;53.174;6.614;2022-08-19T14:40:48;24.80;99.90
61841;DHT22;47773;53.174;6.614;2022-08-19T14:43:14;24.80;99.90
61841;DHT22;47773;53.174;6.614;2022-08-19T14:45:40;24.80;99.90
61841;DHT22;47773;53.174;6.614;2022-08-19T14:48:07;24.90;99.90
61841;DHT22;47773;53.174;6.614;2022-08-19T14:50:34;24.90;99.90
61841;DHT22;47773;53.174;6.614;2022-08-19T14:53:02;24.80;99.90
61841;DHT22;47773;53.174;6.614;2022-08-19T14:55:30;24.90;99.90
61841;DHT22;47773;53.174;6.614;2022-08-19T14:57:56;24.80;99.90
61841;DHT22;47773;53.174;6.614;2022-08-19T15:00:22;24.80;99.90
61841;DHT22;47773;53.174;6.614;2022-08-19T15:02:49;24.80;99.90
61841;DHT22;47773;53.174;6.614;2022-08-19T15:05:15;24.80;99.90
61841;DHT22;47773;53.174;6.614;2022-08-19T15:07:41;24.80;99.90
61841;DHT22;47773;53.174;6.614;2022-08-19T15:10:07;24.80;99.90
61841;DHT22;47773;53.174;6.614;2022-08-19T15:12:35;24.80;99.90
61841;DHT22;47773;53.174;6.614;2022-08-19T15:15:01;24.90;99.90
61841;DHT22;47773;53.174;6.614;2022-08-19T15:17:28;25.00;99.90
61841;DHT22;47773;53.174;6.614;2022-08-19T15:19:55;25.10;99.90
61841;DHT22;47773;53.174;6.614;2022-08-19T15:22:21;25.20;99.90
61841;DHT22;47773;53.174;6.614;2022-08-19T15:24:47;25.10;99.90
61841;DHT22;47773;53.174;6.614;2022-08-19T15:27:13;25.10;99.90
61841;DHT22;47773;53.174;6.614;2022-08-19T15:29:39;25.00;99.90
61841;DHT22;47773;53.174;6.614;2022-08-19T15:32:07;25.00;99.90
61841;DHT22;47773;53.174;6.614;2022-08-19T15:34:33;25.00;99.90
61841;DHT22;47773;53.174;6.614;2022-08-19T15:37:00;24.90;99.90
61841;DHT22;47773;53.174;6.614;2022-08-19T15:39:26;24.90;99.90
61841;DHT22;47773;53.174;6.614;2022-08-19T15:41:52;24.90;99.90
61841;DHT22;47773;53.174;6.614;2022-08-19T15:44:18;25.00;99.90
61841;DHT22;47773;53.174;6.614;2022-08-19T15:46:46;24.90;99.90
61841;DHT22;47773;53.174;6.614;2022-08-19T15:49:15;24.90;99.90
61841;DHT22;47773;53.174;6.614;2022-08-19T15:51:43;24.90;99.90
61841;DHT22;47773;53.174;6.614;2022-08-19T15:54:15;24.90;99.90
61841;DHT22;47773;53.174;6.614;2022-08-19T15:56:42;24.80;99.90